Wind From: 11-12-2017 10:04 Until: 12-12-2017 06:00 warning for: Wind Level: Orange info button

Power and phone distribution networks may be disrupted for relatively long periods., Roofs and chimneys can be damaged. , Tree branches may break. , Vehicles can be deported. , Traffic may be disrupted, particularly on secondary roads in forest areas. Limit your trips. , Limit your speed in highway driving, especially if you drive a vehicle or hitch sensitive to wind. , Do not go for walks in forests or along the coast., In town, be vigilant against possible falling objects., Do not work on roofs and do not touch any electrical line fallen on the ground., Store or secure sensitive objects to wind or likely to be damaged., Always install power generators outside buildings. 


Meteo18 Weather Cam more information Meteo18 Weather Cam


Thunder radar more information blitzortung!


Rain radar more information rain snow radar


Visit our other weather sites:

Template documentation
and downloads

And another site



Weather Underground History page Text

Daily Summary for April 9, 2017 Units:  Metric    English   Both
« Previous Day
Next Day »
Daily Weekly Monthly Yearly Custom
  High: Low: Average:
Temperature: 24.8 °C 8.1 °C 16.7 °C
Dew Point: 12.7 °C 5.7 °C 8.6 °C
Humidity: 90 % 30 % 62 %
Wind Speed: 12.9 km/h 0.0 km/h 2.1 km/h
Wind Gust: 12.9 km/h - -
Wind:- - SSW
Pressure: 1023.6 hPa 1021.6 hPa -
Precipitation: 0.0 mm    
Historical Graphs
 
 
Tabular Data for April 9, 2017
Time Temperature Dew Point Pressure Wind Wind Speed Wind Gust Humidity Rainfall Rate (Hourly)
00:02 13.3 °C 8.4 °C 1022.6 hPa Calm   3.2 km/h 72 % 0.0 mm
00:12 12.6 °C 8.1 °C 1022.6 hPa WNW 3.2 km/h 3.2 km/h 74 % 0.0 mm
00:17 12.7 °C 8.4 °C 1022.6 hPa WNW 1.6 km/h 4.8 km/h 75 % 0.0 mm
00:22 13.1 °C 8.4 °C 1022.6 hPa NW 1.6 km/h 4.8 km/h 73 % 0.0 mm
00:27 13.3 °C 8.4 °C 1022.6 hPa NW 1.6 km/h 4.8 km/h 72 % 0.0 mm
00:32 13.2 °C 8.3 °C 1022.6 hPa Calm   4.8 km/h 72 % 0.0 mm
00:37 13.2 °C 8.3 °C 1022.6 hPa NW 1.6 km/h 4.8 km/h 72 % 0.0 mm
00:42 13.0 °C 8.1 °C 1022.6 hPa NW 3.2 km/h 4.8 km/h 72 % 0.0 mm
00:47 12.8 °C 7.9 °C 1022.6 hPa WNW 3.2 km/h 4.8 km/h 72 % 0.0 mm
00:52 12.2 °C 7.9 °C 1022.6 hPa WNW 3.2 km/h 4.8 km/h 75 % 0.0 mm
00:57 12.3 °C 8.2 °C 1022.6 hPa NW 3.2 km/h 4.8 km/h 76 % 0.0 mm
01:02 12.7 °C 8.2 °C 1022.6 hPa NW 1.6 km/h 4.8 km/h 74 % 0.0 mm
01:07 12.6 °C 7.9 °C 1022.6 hPa NW 1.6 km/h 4.8 km/h 73 % 0.0 mm
01:12 12.7 °C 8.0 °C 1022.6 hPa NNW 3.2 km/h 4.8 km/h 73 % 0.0 mm
01:17 12.7 °C 8.0 °C 1022.6 hPa North 1.6 km/h 4.8 km/h 73 % 0.0 mm
01:22 12.7 °C 8.0 °C 1022.6 hPa North 1.6 km/h 4.8 km/h 73 % 0.0 mm
01:27 12.7 °C 8.0 °C 1022.6 hPa North 4.8 km/h 4.8 km/h 73 % 0.0 mm
01:32 12.7 °C 8.0 °C 1022.6 hPa North 1.6 km/h 4.8 km/h 73 % 0.0 mm
01:37 12.6 °C 8.1 °C 1022.6 hPa North 3.2 km/h 4.8 km/h 74 % 0.0 mm
01:42 12.5 °C 8.0 °C 1022.6 hPa NW 1.6 km/h 6.4 km/h 74 % 0.0 mm
01:47 12.2 °C 7.9 °C 1022.6 hPa NW 3.2 km/h 6.4 km/h 75 % 0.0 mm
01:52 12.3 °C 8.0 °C 1022.6 hPa NNW 1.6 km/h 4.8 km/h 75 % 0.0 mm
01:57 12.5 °C 8.2 °C 1022.6 hPa NNW 1.6 km/h 4.8 km/h 75 % 0.0 mm
02:02 12.5 °C 8.0 °C 1022.6 hPa NNW 3.2 km/h 4.8 km/h 74 % 0.0 mm
02:07 12.5 °C 8.2 °C 1022.6 hPa NW 1.6 km/h 4.8 km/h 75 % 0.0 mm
02:12 12.4 °C 8.1 °C 1022.6 hPa Calm   4.8 km/h 75 % 0.0 mm
02:17 12.3 °C 8.0 °C 1022.6 hPa NNW 3.2 km/h 4.8 km/h 75 % 0.0 mm
02:22 12.2 °C 7.9 °C 1022.6 hPa Calm   4.8 km/h 75 % 0.0 mm
02:27 12.1 °C 8.0 °C 1022.2 hPa North 1.6 km/h 4.8 km/h 76 % 0.0 mm
02:32 12.1 °C 8.0 °C 1022.2 hPa North 1.6 km/h 4.8 km/h 76 % 0.0 mm
02:37 11.9 °C 7.8 °C 1022.2 hPa NNE 3.2 km/h 4.8 km/h 76 % 0.0 mm
02:42 11.8 °C 7.9 °C 1022.2 hPa Calm   4.8 km/h 77 % 0.0 mm
02:52 11.7 °C 7.8 °C 1022.2 hPa WNW 3.2 km/h 4.8 km/h 77 % 0.0 mm
02:57 11.7 °C 8.0 °C 1022.2 hPa WNW 1.6 km/h 3.2 km/h 78 % 0.0 mm
03:02 11.8 °C 7.9 °C 1022.2 hPa Calm   3.2 km/h 77 % 0.0 mm
03:07 11.8 °C 7.9 °C 1022.2 hPa NW 1.6 km/h 3.2 km/h 77 % 0.0 mm
03:12 11.7 °C 7.8 °C 1022.2 hPa Calm   3.2 km/h 77 % 0.0 mm
03:17 11.7 °C 8.0 °C 1022.2 hPa Calm   1.6 km/h 78 % 0.0 mm
03:22 11.6 °C 7.9 °C 1022.2 hPa NW 1.6 km/h 3.2 km/h 78 % 0.0 mm
03:27 11.6 °C 7.9 °C 1022.2 hPa NW 1.6 km/h 3.2 km/h 78 % 0.0 mm
03:32 11.6 °C 7.9 °C 1022.2 hPa NW 1.6 km/h 3.2 km/h 78 % 0.0 mm
03:37 11.7 °C 8.0 °C 1022.2 hPa NW 1.6 km/h 3.2 km/h 78 % 0.0 mm
03:42 11.8 °C 7.9 °C 1022.2 hPa NW 1.6 km/h 3.2 km/h 77 % 0.0 mm
03:47 11.8 °C 7.9 °C 1022.2 hPa Calm   3.2 km/h 77 % 0.0 mm
03:52 11.8 °C 7.9 °C 1022.2 hPa Calm   3.2 km/h 77 % 0.0 mm
03:57 11.9 °C 8.0 °C 1022.2 hPa North 1.6 km/h 3.2 km/h 77 % 0.0 mm
04:02 11.9 °C 8.0 °C 1022.2 hPa Calm   3.2 km/h 77 % 0.0 mm
04:07 11.8 °C 7.9 °C 1022.2 hPa Calm   3.2 km/h 77 % 0.0 mm
04:12 11.6 °C 7.7 °C 1022.2 hPa Calm   1.6 km/h 77 % 0.0 mm
04:17 11.3 °C 7.6 °C 1022.2 hPa Calm   1.6 km/h 78 % 0.0 mm
04:22 11.1 °C 7.6 °C 1022.2 hPa Calm   1.6 km/h 79 % 0.0 mm
04:27 11.1 °C 7.8 °C 1021.9 hPa Calm   1.6 km/h 80 % 0.0 mm
04:32 11.1 °C 7.8 °C 1021.9 hPa Calm   1.6 km/h 80 % 0.0 mm
04:37 10.8 °C 7.5 °C 1021.9 hPa Calm     80 % 0.0 mm
04:42 10.7 °C 7.6 °C 1022.2 hPa Calm   1.6 km/h 81 % 0.0 mm
04:47 10.6 °C 7.5 °C 1021.9 hPa Calm   1.6 km/h 81 % 0.0 mm
04:52 10.4 °C 7.3 °C 1022.2 hPa Calm   1.6 km/h 81 % 0.0 mm
04:57 10.2 °C 7.3 °C 1021.9 hPa Calm   1.6 km/h 82 % 0.0 mm
05:02 10.0 °C 7.2 °C 1021.9 hPa NNW 1.6 km/h 1.6 km/h 83 % 0.0 mm
05:12 10.1 °C 7.2 °C 1021.9 hPa Calm   3.2 km/h 82 % 0.0 mm
05:17 9.8 °C 7.2 °C 1021.9 hPa North 1.6 km/h 3.2 km/h 84 % 0.0 mm
05:22 10.1 °C 7.5 °C 1021.9 hPa NNW 1.6 km/h 3.2 km/h 84 % 0.0 mm
05:27 10.3 °C 7.4 °C 1021.9 hPa Calm   3.2 km/h 82 % 0.0 mm
05:32 10.0 °C 7.1 °C 1021.9 hPa Calm   3.2 km/h 82 % 0.0 mm
05:37 9.7 °C 7.0 °C 1021.9 hPa Calm   3.2 km/h 83 % 0.0 mm
05:42 9.5 °C 7.1 °C 1021.9 hPa NNW 1.6 km/h 1.6 km/h 85 % 0.0 mm
05:47 9.6 °C 7.2 °C 1021.9 hPa Calm   1.6 km/h 85 % 0.0 mm
05:52 9.6 °C 7.2 °C 1021.9 hPa Calm   1.6 km/h 85 % 0.0 mm
05:57 9.7 °C 7.1 °C 1021.9 hPa Calm   1.6 km/h 84 % 0.0 mm
06:02 9.8 °C 7.4 °C 1021.9 hPa North 1.6 km/h 1.6 km/h 85 % 0.0 mm
06:07 9.8 °C 7.2 °C 1021.9 hPa NNW 1.6 km/h 3.2 km/h 84 % 0.0 mm
06:12 9.6 °C 7.0 °C 1021.9 hPa NNW 1.6 km/h 3.2 km/h 84 % 0.0 mm
06:17 9.7 °C 7.1 °C 1021.9 hPa NNW 1.6 km/h 3.2 km/h 84 % 0.0 mm
06:22 9.7 °C 7.1 °C 1021.9 hPa NNW 1.6 km/h 4.8 km/h 84 % 0.0 mm
06:32 9.5 °C 6.9 °C 1022.2 hPa NNW 1.6 km/h 4.8 km/h 84 % 0.0 mm
06:37 9.3 °C 6.7 °C 1022.2 hPa North 3.2 km/h 3.2 km/h 84 % 0.0 mm
06:42 9.4 °C 7.2 °C 1021.9 hPa North 3.2 km/h 3.2 km/h 86 % 0.0 mm
06:47 9.4 °C 7.0 °C 1021.9 hPa North 1.6 km/h 4.8 km/h 85 % 0.0 mm
06:52 9.3 °C 6.7 °C 1022.2 hPa Calm   4.8 km/h 84 % 0.0 mm
06:57 8.7 °C 6.1 °C 1022.2 hPa Calm   3.2 km/h 84 % 0.0 mm
07:02 8.1 °C 5.9 °C 1022.2 hPa Calm   3.2 km/h 86 % 0.0 mm
07:12 8.4 °C 6.9 °C 1022.2 hPa NNW 1.6 km/h 1.6 km/h 90 % 0.0 mm
07:17 8.6 °C 6.9 °C 1022.2 hPa Calm   1.6 km/h 89 % 0.0 mm
07:22 8.7 °C 6.8 °C 1022.2 hPa NNW 1.6 km/h 1.6 km/h 88 % 0.0 mm
07:27 8.6 °C 6.6 °C 1022.2 hPa North 1.6 km/h 1.6 km/h 87 % 0.0 mm
07:32 8.7 °C 6.7 °C 1022.2 hPa NNW 1.6 km/h 1.6 km/h 87 % 0.0 mm
07:37 8.8 °C 6.8 °C 1022.2 hPa NNW 1.6 km/h 3.2 km/h 87 % 0.0 mm
07:42 9.0 °C 7.0 °C 1022.2 hPa North 1.6 km/h 3.2 km/h 87 % 0.0 mm
07:47 9.2 °C 7.0 °C 1022.2 hPa Calm   3.2 km/h 86 % 0.0 mm
07:52 9.2 °C 6.8 °C 1022.2 hPa Calm   3.2 km/h 85 % 0.0 mm
07:57 9.2 °C 6.8 °C 1022.6 hPa Calm   3.2 km/h 85 % 0.0 mm
08:02 9.1 °C 6.7 °C 1022.6 hPa NW 1.6 km/h 3.2 km/h 85 % 0.0 mm
08:07 9.1 °C 6.9 °C 1022.6 hPa Calm   3.2 km/h 86 % 0.0 mm
08:17 9.6 °C 7.4 °C 1022.6 hPa Calm   3.2 km/h 86 % 0.0 mm
08:22 9.8 °C 7.6 °C 1022.6 hPa Calm   1.6 km/h 86 % 0.0 mm
08:32 10.7 °C 8.1 °C 1022.6 hPa Calm   1.6 km/h 84 % 0.0 mm
08:37 11.1 °C 8.5 °C 1022.6 hPa Calm   1.6 km/h 84 % 0.0 mm
08:42 11.4 °C 8.6 °C 1022.6 hPa Calm   1.6 km/h 83 % 0.0 mm
08:47 12.0 °C 9.2 °C 1022.9 hPa Calm   1.6 km/h 83 % 0.0 mm
08:52 12.4 °C 9.2 °C 1022.9 hPa Calm   1.6 km/h 81 % 0.0 mm
08:57 12.8 °C 9.4 °C 1022.9 hPa Calm     80 % 0.0 mm
09:02 13.7 °C 10.1 °C 1022.9 hPa Calm     79 % 0.0 mm
09:07 14.7 °C 9.3 °C 1022.9 hPa Calm     70 % 0.0 mm
09:12 15.1 °C 8.6 °C 1022.9 hPa Calm   1.6 km/h 65 % 0.0 mm
09:17 15.0 °C 8.9 °C 1022.9 hPa Calm   1.6 km/h 67 % 0.0 mm
09:22 14.8 °C 8.7 °C 1022.9 hPa SE 1.6 km/h 6.4 km/h 67 % 0.0 mm
09:27 14.8 °C 8.7 °C 1022.9 hPa South 3.2 km/h 6.4 km/h 67 % 0.0 mm
09:32 14.8 °C 8.7 °C 1022.9 hPa SE 4.8 km/h 6.4 km/h 67 % 0.0 mm
09:37 14.8 °C 8.7 °C 1023.2 hPa SE 3.2 km/h 6.4 km/h 67 % 0.0 mm
09:42 14.6 °C 8.3 °C 1022.9 hPa SSE 6.4 km/h 8.0 km/h 66 % 0.0 mm
09:47 14.4 °C 8.3 °C 1023.2 hPa ESE 4.8 km/h 9.7 km/h 67 % 0.0 mm
09:52 14.5 °C 8.9 °C 1023.2 hPa SE 3.2 km/h 9.7 km/h 69 % 0.0 mm
09:57 14.6 °C 8.8 °C 1023.2 hPa ENE 3.2 km/h 9.7 km/h 68 % 0.0 mm
10:02 14.9 °C 9.3 °C 1023.2 hPa East 3.2 km/h 9.7 km/h 69 % 0.0 mm
10:07 15.1 °C 9.5 °C 1023.2 hPa East 1.6 km/h 8.0 km/h 69 % 0.0 mm
10:12 15.1 °C 9.5 °C 1023.2 hPa East 1.6 km/h 6.4 km/h 69 % 0.0 mm
10:17 15.2 °C 9.3 °C 1023.2 hPa East 3.2 km/h 6.4 km/h 68 % 0.0 mm
10:22 15.1 °C 9.7 °C 1023.2 hPa Calm   6.4 km/h 70 % 0.0 mm
10:32 15.2 °C 9.3 °C 1023.2 hPa Calm   8.0 km/h 68 % 0.0 mm
10:42 15.4 °C 9.3 °C 1023.2 hPa SE 4.8 km/h 8.0 km/h 67 % 0.0 mm
10:47 15.5 °C 9.4 °C 1023.2 hPa SE 4.8 km/h 6.4 km/h 67 % 0.0 mm
10:52 15.7 °C 9.6 °C 1023.2 hPa SE 4.8 km/h 6.4 km/h 67 % 0.0 mm
10:57 15.7 °C 10.0 °C 1023.2 hPa SE 3.2 km/h 6.4 km/h 69 % 0.0 mm
11:02 16.1 °C 10.0 °C 1023.2 hPa Calm   8.0 km/h 67 % 0.0 mm
11:07 16.3 °C 9.9 °C 1023.2 hPa SE 1.6 km/h 8.0 km/h 66 % 0.0 mm
11:12 16.7 °C 10.5 °C 1023.6 hPa Calm   6.4 km/h 67 % 0.0 mm
11:17 17.2 °C 10.8 °C 1023.2 hPa SE 1.6 km/h 4.8 km/h 66 % 0.0 mm
11:22 17.1 °C 10.2 °C 1023.2 hPa Calm   8.0 km/h 64 % 0.0 mm
11:27 17.3 °C 10.7 °C 1023.6 hPa SE 4.8 km/h 8.0 km/h 65 % 0.0 mm
11:32 17.3 °C 10.7 °C 1023.2 hPa SSW 3.2 km/h 8.0 km/h 65 % 0.0 mm
11:37 17.8 °C 10.9 °C 1023.6 hPa ESE 1.6 km/h 6.4 km/h 64 % 0.0 mm
11:42 18.0 °C 10.6 °C 1023.6 hPa SE 3.2 km/h 6.4 km/h 62 % 0.0 mm
11:47 18.1 °C 10.9 °C 1023.6 hPa Calm   9.7 km/h 63 % 0.0 mm
11:52 18.3 °C 10.9 °C 1023.2 hPa SSE 1.6 km/h 9.7 km/h 62 % 0.0 mm
11:57 18.6 °C 11.2 °C 1023.6 hPa East 3.2 km/h 9.7 km/h 62 % 0.0 mm
12:02 18.5 °C 11.1 °C 1023.2 hPa Calm   6.4 km/h 62 % 0.0 mm
12:07 18.7 °C 11.8 °C 1023.2 hPa East 1.6 km/h 6.4 km/h 64 % 0.0 mm
12:12 18.6 °C 11.4 °C 1023.2 hPa East 4.8 km/h 8.0 km/h 63 % 0.0 mm
12:17 18.8 °C 11.4 °C 1023.2 hPa ENE 1.6 km/h 8.0 km/h 62 % 0.0 mm
12:22 19.1 °C 11.9 °C 1023.2 hPa ENE 3.2 km/h 8.0 km/h 63 % 0.0 mm
12:27 19.2 °C 11.2 °C 1023.2 hPa Calm   6.4 km/h 60 % 0.0 mm
12:32 19.7 °C 11.7 °C 1023.2 hPa SSE 1.6 km/h 6.4 km/h 60 % 0.0 mm
12:37 19.9 °C 11.1 °C 1023.2 hPa Calm   6.4 km/h 57 % 0.0 mm
12:47 20.1 °C 11.3 °C 1023.2 hPa ESE 6.4 km/h 8.0 km/h 57 % 0.0 mm
12:52 20.2 °C 11.9 °C 1023.2 hPa Calm   8.0 km/h 59 % 0.0 mm
12:57 20.3 °C 11.5 °C 1023.2 hPa ESE 3.2 km/h 8.0 km/h 57 % 0.0 mm
13:02 20.5 °C 12.0 °C 1023.2 hPa SSE 3.2 km/h 8.0 km/h 58 % 0.0 mm
13:07 20.6 °C 12.3 °C 1023.2 hPa ESE 4.8 km/h 6.4 km/h 59 % 0.0 mm
13:12 20.6 °C 11.8 °C 1023.2 hPa ESE 4.8 km/h 9.7 km/h 57 % 0.0 mm
13:17 20.8 °C 12.0 °C 1023.2 hPa East 4.8 km/h 9.7 km/h 57 % 0.0 mm
13:22 21.0 °C 12.4 °C 1023.2 hPa SE 1.6 km/h 9.7 km/h 58 % 0.0 mm
13:27 21.3 °C 12.2 °C 1022.9 hPa SSW 4.8 km/h 11.3 km/h 56 % 0.0 mm
13:32 21.5 °C 11.5 °C 1022.9 hPa ESE 9.7 km/h 11.3 km/h 53 % 0.0 mm
13:37 21.6 °C 12.7 °C 1022.9 hPa East 1.6 km/h 11.3 km/h 57 % 0.0 mm
13:42 21.7 °C 12.0 °C 1022.9 hPa SE 4.8 km/h 11.3 km/h 54 % 0.0 mm
13:47 21.4 °C 11.7 °C 1022.9 hPa Calm   11.3 km/h 54 % 0.0 mm
13:52 21.8 °C 11.8 °C 1022.9 hPa Calm   11.3 km/h 53 % 0.0 mm
13:57 21.7 °C 11.4 °C 1022.9 hPa East 3.2 km/h 11.3 km/h 52 % 0.0 mm
14:02 21.6 °C 11.3 °C 1022.9 hPa Calm   8.0 km/h 52 % 0.0 mm
14:07 22.1 °C 12.1 °C 1022.9 hPa Calm   8.0 km/h 53 % 0.0 mm
14:12 22.2 °C 11.3 °C 1022.9 hPa East 3.2 km/h 8.0 km/h 50 % 0.0 mm
14:17 22.2 °C 11.3 °C 1022.9 hPa SE 1.6 km/h 8.0 km/h 50 % 0.0 mm
14:22 22.2 °C 11.3 °C 1022.9 hPa ENE 4.8 km/h 8.0 km/h 50 % 0.0 mm
14:27 22.4 °C 12.3 °C 1022.9 hPa Calm   6.4 km/h 53 % 0.0 mm
14:32 22.9 °C 11.3 °C 1022.9 hPa WSW 6.4 km/h 6.4 km/h 48 % 0.0 mm
14:37 22.9 °C 12.2 °C 1022.9 hPa ESE 3.2 km/h 9.7 km/h 51 % 0.0 mm
14:42 22.8 °C 10.6 °C 1022.9 hPa ENE 3.2 km/h 9.7 km/h 46 % 0.0 mm
14:47 23.1 °C 10.8 °C 1022.9 hPa WSW 6.4 km/h 9.7 km/h 46 % 0.0 mm
14:52 22.9 °C 10.3 °C 1022.9 hPa SSW 3.2 km/h 11.3 km/h 45 % 0.0 mm
14:57 22.7 °C 10.2 °C 1022.9 hPa SSW 1.6 km/h 12.9 km/h 45 % 0.0 mm
15:02 22.9 °C 10.3 °C 1022.9 hPa SW 9.7 km/h 12.9 km/h 45 % 0.0 mm
15:07 23.1 °C 10.2 °C 1022.9 hPa SSW 9.7 km/h 12.9 km/h 44 % 0.0 mm
15:12 23.0 °C 9.7 °C 1022.9 hPa SE 4.8 km/h 12.9 km/h 43 % 0.0 mm
15:17 23.1 °C 10.5 °C 1022.6 hPa Calm   12.9 km/h 45 % 0.0 mm
15:22 23.1 °C 10.5 °C 1022.6 hPa ESE 4.8 km/h 12.9 km/h 45 % 0.0 mm
15:27 23.2 °C 11.3 °C 1022.6 hPa ESE 1.6 km/h 8.0 km/h 47 % 0.0 mm
15:32 23.3 °C 11.0 °C 1022.6 hPa SSW 3.2 km/h 9.7 km/h 46 % 0.0 mm
15:37 23.6 °C 11.0 °C 1022.6 hPa ESE 4.8 km/h 11.3 km/h 45 % 0.0 mm
15:42 23.3 °C 10.4 °C 1022.6 hPa ESE 6.4 km/h 11.3 km/h 44 % 0.0 mm
15:47 23.3 °C 9.7 °C 1022.6 hPa South 9.7 km/h 9.7 km/h 42 % 0.0 mm
15:52 23.3 °C 9.3 °C 1022.2 hPa East 3.2 km/h 11.3 km/h 41 % 0.0 mm
15:57 23.5 °C 9.8 °C 1022.6 hPa SSW 3.2 km/h 11.3 km/h 42 % 0.0 mm
16:02 23.9 °C 8.7 °C 1022.2 hPa SW 12.9 km/h 12.9 km/h 38 % 0.0 mm
16:12 24.1 °C 9.7 °C 1022.2 hPa West 3.2 km/h 12.9 km/h 40 % 0.0 mm
16:17 24.5 °C 9.6 °C 1022.2 hPa SW 3.2 km/h 12.9 km/h 39 % 0.0 mm
16:22 24.1 °C 8.9 °C 1022.2 hPa SW 1.6 km/h 9.7 km/h 38 % 0.0 mm
16:27 24.2 °C 7.8 °C 1022.2 hPa Calm   12.9 km/h 35 % 0.0 mm
16:32 24.3 °C 8.7 °C 1022.2 hPa WSW 3.2 km/h 12.9 km/h 37 % 0.0 mm
16:37 24.2 °C 9.0 °C 1022.2 hPa Calm   8.0 km/h 38 % 0.0 mm
16:42 24.5 °C 9.2 °C 1022.2 hPa Calm   8.0 km/h 38 % 0.0 mm
16:52 24.8 °C 8.7 °C 1021.9 hPa WSW 4.8 km/h 6.4 km/h 36 % 0.0 mm
16:57 24.6 °C 9.7 °C 1021.9 hPa SSW 4.8 km/h 8.0 km/h 39 % 0.0 mm
17:02 24.7 °C 9.8 °C 1021.9 hPa SW 6.4 km/h 11.3 km/h 39 % 0.0 mm
17:07 24.4 °C 9.2 °C 1021.9 hPa SW 4.8 km/h 11.3 km/h 38 % 0.0 mm
17:12 24.3 °C 9.5 °C 1021.9 hPa SW 4.8 km/h 12.9 km/h 39 % 0.0 mm
17:17 24.3 °C 9.5 °C 1021.9 hPa SE 3.2 km/h 12.9 km/h 39 % 0.0 mm
17:22 24.5 °C 9.2 °C 1021.9 hPa SSW 1.6 km/h 12.9 km/h 38 % 0.0 mm
17:27 24.4 °C 8.8 °C 1021.9 hPa WSW 6.4 km/h 12.9 km/h 37 % 0.0 mm
17:32 24.4 °C 9.2 °C 1021.6 hPa SSW 8.0 km/h 12.9 km/h 38 % 0.0 mm
17:37 24.4 °C 8.4 °C 1021.9 hPa SW 4.8 km/h 12.9 km/h 36 % 0.0 mm
17:42 24.4 °C 7.9 °C 1021.9 hPa South 3.2 km/h 11.3 km/h 35 % 0.0 mm
17:47 24.5 °C 8.4 °C 1021.6 hPa SW 6.4 km/h 12.9 km/h 36 % 0.0 mm
17:52 24.5 °C 7.2 °C 1021.6 hPa SSW 9.7 km/h 12.9 km/h 33 % 0.0 mm
17:57 24.5 °C 6.7 °C 1021.6 hPa SSW 6.4 km/h 12.9 km/h 32 % 0.0 mm
18:02 24.4 °C 7.1 °C 1021.6 hPa SW 4.8 km/h 11.3 km/h 33 % 0.0 mm
18:07 24.6 °C 7.3 °C 1021.6 hPa SW 8.0 km/h 12.9 km/h 33 % 0.0 mm
18:12 24.4 °C 7.5 °C 1021.6 hPa South 3.2 km/h 12.9 km/h 34 % 0.0 mm
18:17 24.7 °C 7.3 °C 1021.6 hPa South 8.0 km/h 11.3 km/h 33 % 0.0 mm
18:22 24.6 °C 6.8 °C 1021.6 hPa SW 8.0 km/h 11.3 km/h 32 % 0.0 mm
18:27 24.4 °C 5.7 °C 1021.6 hPa SSW 6.4 km/h 12.9 km/h 30 % 0.0 mm
18:32 24.4 °C 7.1 °C 1021.6 hPa SSW 8.0 km/h 12.9 km/h 33 % 0.0 mm
18:37 24.3 °C 6.5 °C 1021.6 hPa SW 8.0 km/h 11.3 km/h 32 % 0.0 mm
18:47 24.4 °C 7.5 °C 1021.6 hPa South 8.0 km/h 11.3 km/h 34 % 0.0 mm
18:52 24.3 °C 6.5 °C 1021.6 hPa SSW 4.8 km/h 11.3 km/h 32 % 0.0 mm
18:57 24.3 °C 7.0 °C 1021.6 hPa SSW 6.4 km/h 11.3 km/h 33 % 0.0 mm
19:07 24.2 °C 6.5 °C 1021.6 hPa SSW 6.4 km/h 11.3 km/h 32 % 0.0 mm
19:12 24.2 °C 6.0 °C 1021.6 hPa SSW 4.8 km/h 11.3 km/h 31 % 0.0 mm
19:22 24.0 °C 7.2 °C 1021.6 hPa SSE 3.2 km/h 11.3 km/h 34 % 0.0 mm
19:27 24.1 °C 7.3 °C 1021.6 hPa SSW 4.8 km/h 9.7 km/h 34 % 0.0 mm
19:32 24.0 °C 7.6 °C 1021.6 hPa SW 8.0 km/h 9.7 km/h 35 % 0.0 mm
19:37 23.8 °C 7.8 °C 1021.6 hPa SSW 1.6 km/h 8.0 km/h 36 % 0.0 mm
19:47 23.5 °C 7.2 °C 1021.6 hPa SW 3.2 km/h 8.0 km/h 35 % 0.0 mm
19:52 23.2 °C 6.9 °C 1021.6 hPa SW 3.2 km/h 6.4 km/h 35 % 0.0 mm
19:57 23.1 °C 7.6 °C 1021.6 hPa SW 3.2 km/h 6.4 km/h 37 % 0.0 mm
20:02 22.9 °C 7.8 °C 1021.6 hPa SW 1.6 km/h 4.8 km/h 38 % 0.0 mm
20:07 22.7 °C 8.0 °C 1021.6 hPa Calm   4.8 km/h 39 % 0.0 mm
20:12 22.4 °C 7.8 °C 1021.6 hPa Calm   3.2 km/h 39 % 0.0 mm
20:17 22.2 °C 7.6 °C 1021.6 hPa Calm   3.2 km/h 39 % 0.0 mm
20:22 21.9 °C 8.1 °C 1021.6 hPa Calm     41 % 0.0 mm
20:27 21.4 °C 8.0 °C 1021.6 hPa Calm     42 % 0.0 mm
20:32 21.1 °C 7.7 °C 1021.6 hPa Calm     42 % 0.0 mm
20:37 20.6 °C 7.2 °C 1021.6 hPa Calm     42 % 0.0 mm
20:42 20.3 °C 7.0 °C 1021.6 hPa Calm     42 % 0.0 mm
20:47 20.0 °C 7.0 °C 1021.6 hPa Calm     43 % 0.0 mm
20:52 19.8 °C 7.2 °C 1021.9 hPa Calm     44 % 0.0 mm
20:57 19.6 °C 7.3 °C 1021.9 hPa Calm     45 % 0.0 mm
21:02 19.3 °C 7.1 °C 1021.9 hPa Calm     45 % 0.0 mm
21:12 18.6 °C 8.0 °C 1021.9 hPa Calm     50 % 0.0 mm
21:17 18.1 °C 7.2 °C 1021.9 hPa Calm     49 % 0.0 mm
21:22 18.4 °C 7.2 °C 1021.9 hPa Calm     48 % 0.0 mm
21:32 17.6 °C 7.6 °C 1022.2 hPa Calm     52 % 0.0 mm
21:37 17.5 °C 7.2 °C 1022.2 hPa Calm     51 % 0.0 mm
21:42 17.5 °C 7.8 °C 1022.2 hPa Calm     53 % 0.0 mm
21:47 17.8 °C 7.5 °C 1022.2 hPa Calm     51 % 0.0 mm
21:57 17.1 °C 6.9 °C 1022.2 hPa Calm     51 % 0.0 mm
22:02 16.6 °C 7.3 °C 1022.2 hPa Calm     54 % 0.0 mm
22:07 16.2 °C 7.7 °C 1022.2 hPa Calm     57 % 0.0 mm
22:12 15.9 °C 8.1 °C 1022.2 hPa Calm     60 % 0.0 mm
22:17 15.9 °C 8.1 °C 1022.2 hPa Calm     60 % 0.0 mm
22:22 15.8 °C 8.3 °C 1022.2 hPa Calm     61 % 0.0 mm
22:27 16.1 °C 8.3 °C 1022.2 hPa Calm     60 % 0.0 mm
22:32 15.9 °C 8.4 °C 1022.6 hPa Calm     61 % 0.0 mm
22:42 15.9 °C 8.6 °C 1022.6 hPa Calm     62 % 0.0 mm
22:52 16.0 °C 8.5 °C 1022.6 hPa Calm     61 % 0.0 mm
22:57 15.8 °C 8.5 °C 1022.6 hPa Calm     62 % 0.0 mm
23:02 15.4 °C 8.4 °C 1022.6 hPa Calm     63 % 0.0 mm
23:07 15.2 °C 8.7 °C 1022.6 hPa Calm     65 % 0.0 mm
23:12 15.4 °C 8.6 °C 1022.6 hPa Calm     64 % 0.0 mm
23:17 15.2 °C 8.2 °C 1022.9 hPa Calm     63 % 0.0 mm
23:22 15.1 °C 8.6 °C 1022.9 hPa Calm     65 % 0.0 mm
23:27 15.6 °C 8.6 °C 1022.9 hPa Calm     63 % 0.0 mm
23:32 15.6 °C 8.6 °C 1022.9 hPa Calm     63 % 0.0 mm
23:37 15.4 °C 8.4 °C 1022.9 hPa Calm     63 % 0.0 mm
23:42 15.1 °C 8.3 °C 1022.9 hPa Calm     64 % 0.0 mm
23:47 14.7 °C 8.2 °C 1022.9 hPa Calm     65 % 0.0 mm
23:52 14.4 °C 8.1 °C 1022.9 hPa Calm     66 % 0.0 mm
23:57 14.2 °C 8.2 °C 1022.6 hPa Calm     67 % 0.0 mm
Meteo18
Compliments of Weather Underground - 4 mb

Script developed by  Jim McMurry - jmcmurry@mwt.net Adapted for the template by  Wim van der Kuil - Leuven-Template.eu

You find our weather info also at:

European Weather Network

Weather Underground

Equipment we use:

Weather-station
Davis Vue

Weather-program
Meteohub

Weather-server
Raspberry PI 2 B+

Provider
1 and 1

Davis Vue

Meteohub

Raspberry PI 2 B+

1 and 1